Time;durP1;ratioP1;P1;durP2;ratioP2;P2;SDS_P1;SDS_P2;PMS_P1;PMS_P2;Temp;Humidity;BMP_temperature;BMP_pressure;BME280_temperature;BME280_humidity;BME280_pressure;Samples;Min_cycle;Max_cycle;Signal;HPM_P1;HPM_P2
2023/08/22 00:00:03;;;;;;;5.82;2.03;;;;;;;;;;5039621;28;88326;-94
2023/08/22 00:02:38;;;;;;;6.35;2.00;;;;;;;;;;5050052;27;89136;-93
2023/08/22 00:05:05;;;;;;;5.28;2.00;;;;;;;;;;5058607;27;88372;-91
2023/08/22 00:07:41;;;;;;;5.25;1.98;;;;;;;;;;5065980;27;88505;-92
2023/08/22 00:10:14;;;;;;;5.13;1.88;;;;;;;;;;5053721;27;88194;-90
2023/08/22 00:12:44;;;;;;;5.68;1.85;;;;;;;;;;5064885;27;90475;-93
2023/08/22 00:15:13;;;;;;;6.93;1.83;;;;;;;;;;5065377;27;88110;-93
2023/08/22 00:17:40;;;;;;;9.07;2.13;;;;;;;;;;5067788;27;89149;-92
2023/08/22 00:20:08;;;;;;;10.45;2.10;;;;;;;;;;5067014;27;89754;-93
2023/08/22 00:22:36;;;;;;;6.30;2.00;;;;;;;;;;5064195;27;88657;-92
2023/08/22 00:25:10;;;;;;;3.97;1.70;;;;;;;;;;5029971;27;90030;-93
2023/08/22 00:27:42;;;;;;;6.72;1.88;;;;;;;;;;5065549;27;88450;-91
2023/08/22 00:30:10;;;;;;;5.30;2.00;;;;;;;;;;5066657;27;88511;-92
2023/08/22 00:32:37;;;;;;;5.53;1.80;;;;;;;;;;5063061;27;88357;-92
2023/08/22 00:35:09;;;;;;;5.03;1.65;;;;;;;;;;5067369;27;88081;-92
2023/08/22 00:37:43;;;;;;;4.20;1.70;;;;;;;;;;5065701;27;90049;-92
2023/08/22 00:40:11;;;;;;;5.28;1.60;;;;;;;;;;5063631;27;89572;-91
2023/08/22 00:42:44;;;;;;;5.78;1.80;;;;;;;;;;5067882;27;88004;-92
2023/08/22 00:45:42;;;;;;;;;;;;;;;;;;;;;
2023/08/22 00:49:26;;;;;;;4.47;1.80;;;;;;;;;;5060977;27;89238;-91
2023/08/22 00:52:24;;;;;;;6.13;2.10;;;;;;;;;;5066092;27;88807;-90
2023/08/22 00:55:17;;;;;;;5.65;1.70;;;;;;;;;;5058233;27;89043;-92
2023/08/22 00:58:14;;;;;;;5.82;2.05;;;;;;;;;;5067928;27;87866;-92
2023/08/22 01:00:59;;;;;;;6.03;1.95;;;;;;;;;;5065001;27;89997;-92
2023/08/22 01:03:29;;;;;;;6.40;2.10;;;;;;;;;;5065788;27;90952;-92
2023/08/22 01:06:04;;;;;;;5.53;1.88;;;;;;;;;;5067621;27;88488;-92
2023/08/22 01:08:32;;;;;;;5.40;2.15;;;;;;;;;;5067546;27;87805;-91
2023/08/22 01:11:06;;;;;;;6.18;2.00;;;;;;;;;;5067149;27;88459;-91
2023/08/22 01:13:39;;;;;;;6.97;2.05;;;;;;;;;;5070590;27;87034;-92
2023/08/22 01:16:10;;;;;;;5.45;1.98;;;;;;;;;;5058498;27;88593;-92
2023/08/22 01:18:38;;;;;;;6.88;2.10;;;;;;;;;;5065957;27;87482;-92
2023/08/22 01:21:06;;;;;;;6.25;2.22;;;;;;;;;;5064988;27;89136;-92
2023/08/22 01:23:33;;;;;;;;;;;;;;;;;;5048461;27;88117;-93
2023/08/22 01:26:01;;;;;;;6.28;2.13;;;;;;;;;;5068222;27;87637;-92
2023/08/22 01:28:28;;;;;;;5.45;2.10;;;;;;;;;;5067221;27;88470;-91
2023/08/22 01:31:05;;;;;;;5.57;2.10;;;;;;;;;;5065232;27;88673;-91
2023/08/22 01:33:47;;;;;;;5.13;2.15;;;;;;;;;;5066544;27;87699;-90
2023/08/22 01:36:16;;;;;;;3.70;1.80;;;;;;;;;;5068530;27;90473;-92
2023/08/22 01:38:43;;;;;;;6.47;2.08;;;;;;;;;;5056265;27;87229;-91
2023/08/22 01:41:11;;;;;;;5.13;2.03;;;;;;;;;;5065595;27;87622;-91
2023/08/22 01:43:38;;;;;;;5.78;2.20;;;;;;;;;;5065235;27;89942;-91
2023/08/22 01:46:07;;;;;;;9.75;2.55;;;;;;;;;;5051859;27;88859;-90
2023/08/22 01:48:34;;;;;;;8.40;2.40;;;;;;;;;;5065127;27;90359;-91
2023/08/22 01:51:05;;;;;;;6.18;2.00;;;;;;;;;;5064931;27;89101;-90
2023/08/22 01:53:41;;;;;;;5.28;2.20;;;;;;;;;;5066763;27;87652;-91
2023/08/22 01:56:09;;;;;;;6.85;2.08;;;;;;;;;;5066763;27;87945;-91
2023/08/22 01:58:36;;;;;;;6.30;1.98;;;;;;;;;;5068089;27;90926;-92
2023/08/22 02:01:11;;;;;;;6.35;2.47;;;;;;;;;;5064467;27;90214;-91
2023/08/22 02:03:42;;;;;;;6.75;2.00;;;;;;;;;;5066041;27;88283;-92
2023/08/22 02:06:09;;;;;;;4.72;2.00;;;;;;;;;;5047973;27;89666;-91
2023/08/22 02:08:39;;;;;;;8.30;2.05;;;;;;;;;;5064856;27;90232;-91
2023/08/22 02:11:06;;;;;;;8.05;2.17;;;;;;;;;;5065407;27;89231;-90
2023/08/22 02:13:33;;;;;;;5.63;2.20;;;;;;;;;;5066027;27;87706;-91
2023/08/22 02:16:01;;;;;;;6.65;2.08;;;;;;;;;;5058549;27;87810;-90
2023/08/22 02:18:31;;;;;;;5.82;2.15;;;;;;;;;;5067939;27;87994;-91
2023/08/22 02:21:05;;;;;;;6.32;2.08;;;;;;;;;;5047143;27;88093;-90
2023/08/22 02:23:32;;;;;;;4.68;1.80;;;;;;;;;;5051927;27;90446;-90
2023/08/22 02:25:59;;;;;;;5.22;1.88;;;;;;;;;;5064992;27;87748;-91
2023/08/22 02:28:27;;;;;;;4.80;1.88;;;;;;;;;;5066636;27;88297;-91
2023/08/22 02:30:54;;;;;;;;;;;;;;;;;;5058723;27;88217;-91
2023/08/22 02:33:21;;;;;;;4.53;1.80;;;;;;;;;;5060917;27;88275;-92
2023/08/22 02:35:49;;;;;;;7.45;1.85;;;;;;;;;;5063830;27;88523;-91
2023/08/22 02:38:16;;;;;;;5.35;1.80;;;;;;;;;;5060056;27;88131;-91
2023/08/22 02:40:43;;;;;;;;;;;;;;;;;;5067173;27;88279;-91
2023/08/22 02:43:10;;;;;;;9.38;2.33;;;;;;;;;;5067241;27;88495;-91
2023/08/22 02:45:37;;;;;;;5.57;1.70;;;;;;;;;;5065189;27;87638;-91
2023/08/22 02:48:05;;;;;;;5.07;1.90;;;;;;;;;;5047647;27;89921;-91
2023/08/22 02:50:32;;;;;;;3.70;1.70;;;;;;;;;;5049301;27;90112;-88
2023/08/22 02:53:09;;;;;;;7.60;1.95;;;;;;;;;;5064803;27;86905;-90
2023/08/22 02:55:53;;;;;;;6.35;2.00;;;;;;;;;;5065249;27;87835;-91
2023/08/22 02:58:41;;;;;;;4.65;1.90;;;;;;;;;;5048643;27;90585;-91
2023/08/22 03:01:17;;;;;;;8.48;1.90;;;;;;;;;;5063512;27;89063;-90
2023/08/22 03:04:04;;;;;;;4.10;1.80;;;;;;;;;;5067914;27;87733;-92
2023/08/22 03:06:33;;;;;;;4.50;1.80;;;;;;;;;;5047552;27;89003;-91
2023/08/22 03:08:59;;;;;;;;;;;;;;;;;;5064354;27;88507;-91
2023/08/22 03:11:27;;;;;;;6.45;1.92;;;;;;;;;;5067006;27;88162;-91
2023/08/22 03:13:55;;;;;;;6.68;1.90;;;;;;;;;;5063038;27;87686;-92
2023/08/22 03:16:22;;;;;;;5.32;1.77;;;;;;;;;;5061461;27;90419;-91
2023/08/22 03:18:57;;;;;;;6.72;1.80;;;;;;;;;;5059355;27;88962;-90
2023/08/22 03:21:43;;;;;;;5.22;1.80;;;;;;;;;;5046370;27;89221;-91
2023/08/22 03:24:10;;;;;;;3.92;1.60;;;;;;;;;;5060207;27;88155;-91
2023/08/22 03:26:37;;;;;;;4.10;1.80;;;;;;;;;;5071440;27;88502;-90
2023/08/22 03:29:13;;;;;;;4.85;1.63;;;;;;;;;;5067595;27;88449;-91
2023/08/22 03:31:40;;;;;;;6.93;1.85;;;;;;;;;;5055983;27;88248;-90
2023/08/22 03:34:08;;;;;;;4.50;1.70;;;;;;;;;;5066327;27;88631;-89
2023/08/22 03:36:35;;;;;;;4.80;1.75;;;;;;;;;;5066075;27;89509;-90
2023/08/22 03:39:06;;;;;;;5.18;1.75;;;;;;;;;;5057639;27;90741;-90
2023/08/22 03:41:33;;;;;;;4.47;1.63;;;;;;;;;;5059783;27;87640;-90
2023/08/22 03:44:01;;;;;;;6.10;1.77;;;;;;;;;;5067522;27;90263;-89
2023/08/22 03:46:29;;;;;;;7.95;1.98;;;;;;;;;;5067337;27;90762;-89
2023/08/22 03:49:09;;;;;;;6.57;1.77;;;;;;;;;;5048712;27;89351;-93
2023/08/22 03:51:38;;;;;;;5.30;1.70;;;;;;;;;;5057173;27;88880;-92
2023/08/22 03:54:09;;;;;;;4.40;1.55;;;;;;;;;;5048977;27;89067;-91
2023/08/22 03:56:36;;;;;;;3.45;1.70;;;;;;;;;;5067096;27;88241;-92
2023/08/22 03:59:04;;;;;;;4.75;1.80;;;;;;;;;;5066831;27;88612;-92
2023/08/22 04:01:31;;;;;;;6.30;2.00;;;;;;;;;;5049906;27;87788;-92
2023/08/22 04:03:59;;;;;;;15.85;2.00;;;;;;;;;;5065834;27;87998;-92
2023/08/22 04:06:26;;;;;;;9.27;1.90;;;;;;;;;;5066729;27;89120;-92
2023/08/22 04:08:54;;;;;;;3.88;1.60;;;;;;;;;;5057724;27;87355;-92
2023/08/22 04:11:21;;;;;;;;;;;;;;;;;;5048762;27;89610;-92
2023/08/22 04:13:48;;;;;;;4.70;1.65;;;;;;;;;;5051279;27;88028;-92
2023/08/22 04:16:15;;;;;;;4.10;1.88;;;;;;;;;;5067699;27;88664;-91
2023/08/22 04:18:42;;;;;;;;;;;;;;;;;;5051962;27;90987;-91
2023/08/22 04:21:11;;;;;;;3.92;1.80;;;;;;;;;;5051748;27;88917;-92
2023/08/22 04:23:38;;;;;;;10.65;1.92;;;;;;;;;;5057565;27;88143;-91
2023/08/22 04:26:06;;;;;;;4.45;1.70;;;;;;;;;;5066366;27;90458;-90
2023/08/22 04:28:33;;;;;;;4.78;1.58;;;;;;;;;;5066305;27;87701;-91
2023/08/22 04:31:00;;;;;;;4.28;1.50;;;;;;;;;;5061435;27;88317;-91
2023/08/22 04:33:29;;;;;;;4.38;1.80;;;;;;;;;;5046125;27;88499;-90
2023/08/22 04:35:57;;;;;;;4.07;1.73;;;;;;;;;;5048651;27;89627;-90
2023/08/22 04:38:25;;;;;;;3.72;1.70;;;;;;;;;;5059352;27;90209;-90
2023/08/22 04:40:54;;;;;;;4.10;1.80;;;;;;;;;;5065905;27;89071;-92
2023/08/22 04:43:34;;;;;;;3.85;1.52;;;;;;;;;;5066307;27;89532;-90
2023/08/22 04:46:04;;;;;;;6.15;1.80;;;;;;;;;;5066335;27;91119;-91
2023/08/22 04:48:37;;;;;;;2.85;1.70;;;;;;;;;;5066272;27;88567;-91
2023/08/22 04:51:05;;;;;;;5.35;1.90;;;;;;;;;;5065934;27;88008;-91
2023/08/22 04:53:35;;;;;;;4.38;1.75;;;;;;;;;;5068599;27;88652;-91
2023/08/22 04:56:07;;;;;;;5.40;1.80;;;;;;;;;;5065375;27;89635;-91
2023/08/22 04:58:50;;;;;;;5.85;1.65;;;;;;;;;;5066214;27;89639;-91
2023/08/22 05:01:51;;;;;;;5.30;1.67;;;;;;;;;;5063530;27;87745;-90
2023/08/22 05:04:36;;;;;;;7.80;1.95;;;;;;;;;;5050569;27;90762;-89
2023/08/22 05:07:03;;;;;;;6.18;1.90;;;;;;;;;;5065744;27;91027;-91
2023/08/22 05:09:31;;;;;;;;;;;;;;;;;;5065735;27;88803;-91
2023/08/22 05:11:58;;;;;;;4.57;1.80;;;;;;;;;;5067249;27;89422;-92
2023/08/22 05:14:27;;;;;;;;;;;;;;;;;;5048815;27;89914;-91
2023/08/22 05:16:58;;;;;;;5.85;1.90;;;;;;;;;;5059573;27;88608;-92
2023/08/22 05:19:26;;;;;;;5.95;1.65;;;;;;;;;;5065017;27;88078;-91
2023/08/22 05:21:53;;;;;;;4.05;1.80;;;;;;;;;;5065448;27;87716;-92
2023/08/22 05:24:24;;;;;;;6.40;1.80;;;;;;;;;;5056722;27;90618;-91
2023/08/22 05:26:52;;;;;;;4.18;1.70;;;;;;;;;;5048536;27;90333;-92
2023/08/22 05:29:22;;;;;;;6.35;1.90;;;;;;;;;;5065278;27;88483;-91
2023/08/22 05:31:49;;;;;;;6.07;1.90;;;;;;;;;;5052231;27;90635;-90
2023/08/22 05:34:16;;;;;;;6.55;2.33;;;;;;;;;;5066071;27;88125;-91
2023/08/22 05:36:55;;;;;;;6.20;1.90;;;;;;;;;;5065134;27;89439;-93
2023/08/22 05:39:22;;;;;;;8.00;2.55;;;;;;;;;;5063305;27;89566;-89
2023/08/22 05:41:57;;;;;;;9.13;2.50;;;;;;;;;;5065188;27;87814;-90
2023/08/22 05:44:24;;;;;;;5.45;2.10;;;;;;;;;;5066334;27;88223;-86
2023/08/22 05:46:52;;;;;;;7.85;3.13;;;;;;;;;;5034096;27;90340;-85
2023/08/22 05:49:22;;;;;;;6.43;2.47;;;;;;;;;;5048803;27;88982;-86
2023/08/22 05:51:51;;;;;;;8.77;2.67;;;;;;;;;;5065094;27;89480;-86
2023/08/22 05:54:19;;;;;;;6.57;3.00;;;;;;;;;;5065983;27;88888;-85
2023/08/22 05:56:46;;;;;;;;;;;;;;;;;;5064854;27;88559;-85
2023/08/22 05:59:13;;;;;;;8.90;2.67;;;;;;;;;;5066072;27;90653;-85
2023/08/22 06:01:40;;;;;;;;;;;;;;;;;;5067840;27;90405;-85
2023/08/22 06:04:08;;;;;;;8.13;2.72;;;;;;;;;;5049145;27;89480;-87
2023/08/22 06:06:35;;;;;;;9.73;2.72;;;;;;;;;;5064557;27;90274;-84
2023/08/22 06:09:02;;;;;;;12.15;3.20;;;;;;;;;;5065432;27;87565;-84
2023/08/22 06:11:29;;;;;;;9.32;2.42;;;;;;;;;;5065911;27;87919;-83
2023/08/22 06:14:05;;;;;;;11.05;3.22;;;;;;;;;;5064547;27;90247;-84
2023/08/22 06:16:41;;;;;;;10.50;2.95;;;;;;;;;;5059734;27;89032;-84
2023/08/22 06:19:08;;;;;;;10.45;2.83;;;;;;;;;;5063962;27;89804;-84
2023/08/22 06:21:42;;;;;;;7.40;2.60;;;;;;;;;;5065618;27;89008;-84
2023/08/22 06:24:15;;;;;;;6.38;2.88;;;;;;;;;;5059117;27;87820;-84
2023/08/22 06:26:47;;;;;;;8.63;2.83;;;;;;;;;;5056834;27;89718;-83
2023/08/22 06:29:17;;;;;;;7.22;2.30;;;;;;;;;;5043909;27;89027;-83
2023/08/22 06:32:10;;;;;;;12.32;3.05;;;;;;;;;;5051701;27;88257;-83
2023/08/22 06:34:48;;;;;;;5.97;2.30;;;;;;;;;;5056925;27;89978;-83
2023/08/22 06:37:19;;;;;;;6.38;2.42;;;;;;;;;;5045291;27;87630;-82
2023/08/22 06:39:46;;;;;;;6.85;2.35;;;;;;;;;;5054031;27;89958;-82
2023/08/22 06:42:20;;;;;;;7.65;2.45;;;;;;;;;;5044746;27;88142;-84
2023/08/22 06:44:50;;;;;;;7.90;2.78;;;;;;;;;;5064835;27;88761;-84
2023/08/22 06:47:17;;;;;;;7.35;2.47;;;;;;;;;;5063024;27;91814;-84
2023/08/22 06:49:47;;;;;;;7.50;2.55;;;;;;;;;;5062946;27;87712;-83
2023/08/22 06:52:14;;;;;;;10.02;2.85;;;;;;;;;;5063344;27;88548;-83
2023/08/22 06:54:42;;;;;;;9.75;2.38;;;;;;;;;;5062601;27;87771;-84
2023/08/22 06:57:11;;;;;;;6.65;2.03;;;;;;;;;;5064729;27;87654;-84
2023/08/22 06:59:38;;;;;;;8.27;2.40;;;;;;;;;;5057551;27;88092;-84
2023/08/22 07:02:09;;;;;;;6.72;2.13;;;;;;;;;;5049999;27;88160;-85
2023/08/22 07:04:37;;;;;;;7.63;2.28;;;;;;;;;;5059948;27;87213;-85
2023/08/22 07:07:04;;;;;;;8.63;3.50;;;;;;;;;;5057012;27;87841;-83
2023/08/22 07:09:31;;;;;;;8.52;2.65;;;;;;;;;;5042565;27;87838;-83
2023/08/22 07:12:00;;;;;;;9.77;3.35;;;;;;;;;;5043969;27;88903;-83
2023/08/22 07:14:30;;;;;;;7.82;2.50;;;;;;;;;;5040255;27;88687;-83
2023/08/22 07:16:57;;;;;;;9.05;3.03;;;;;;;;;;5044154;27;89578;-83
2023/08/22 07:19:24;;;;;;;7.68;2.72;;;;;;;;;;5040773;27;89842;-82
2023/08/22 07:22:09;;;;;;;8.98;3.08;;;;;;;;;;5044283;27;87544;-83
2023/08/22 07:24:36;;;;;;;7.13;2.80;;;;;;;;;;5042039;27;87672;-83
2023/08/22 07:27:06;;;;;;;8.82;2.72;;;;;;;;;;5044629;27;88208;-84
2023/08/22 07:29:33;;;;;;;7.68;3.00;;;;;;;;;;5045909;27;89308;-83
2023/08/22 07:32:00;;;;;;;8.00;2.75;;;;;;;;;;5043106;27;87618;-82
2023/08/22 07:34:27;;;;;;;7.10;2.53;;;;;;;;;;5045482;27;88128;-82
2023/08/22 07:36:54;;;;;;;8.38;2.67;;;;;;;;;;5064294;27;88678;-91
2023/08/22 07:39:22;;;;;;;7.03;2.20;;;;;;;;;;5059826;27;89445;-91
2023/08/22 07:41:50;;;;;;;8.48;2.72;;;;;;;;;;5055994;27;89795;-90
2023/08/22 07:44:17;;;;;;;7.20;2.63;;;;;;;;;;5042848;27;88339;-89
2023/08/22 07:46:46;;;;;;;9.40;2.90;;;;;;;;;;5047164;27;88625;-89
2023/08/22 07:49:13;;;;;;;7.03;2.30;;;;;;;;;;5051803;27;88245;-84
2023/08/22 07:51:40;;;;;;;4.38;1.80;;;;;;;;;;5048805;27;87612;-84
2023/08/22 07:54:06;;;;;;;7.13;2.35;;;;;;;;;;5049349;27;88131;-84
2023/08/22 07:56:34;;;;;;;9.25;2.97;;;;;;;;;;5044602;27;88022;-84
2023/08/22 07:59:00;;;;;;;8.65;2.90;;;;;;;;;;5051380;27;88338;-85
2023/08/22 08:01:27;;;;;;;8.65;2.95;;;;;;;;;;5042078;27;89802;-83
2023/08/22 08:03:55;;;;;;;9.80;3.13;;;;;;;;;;5063336;27;87643;-82
2023/08/22 08:06:22;;;;;;;4.70;1.80;;;;;;;;;;5064204;27;90562;-86
2023/08/22 08:08:48;;;;;;;7.78;3.00;;;;;;;;;;5059075;27;88470;-81
2023/08/22 08:11:15;;;;;;;7.13;2.50;;;;;;;;;;5047562;27;88745;-82
2023/08/22 08:13:41;;;;;;;7.70;2.38;;;;;;;;;;5052427;27;89809;-84
2023/08/22 08:16:08;;;;;;;8.57;2.28;;;;;;;;;;5048029;27;90239;-83
2023/08/22 08:18:35;;;;;;;8.95;2.33;;;;;;;;;;5054100;27;90532;-83
2023/08/22 08:21:02;;;;;;;7.53;2.38;;;;;;;;;;5048348;27;88274;-84
2023/08/22 08:23:29;;;;;;;9.25;2.10;;;;;;;;;;5053576;27;89060;-83
2023/08/22 08:25:56;;;;;;;6.07;2.25;;;;;;;;;;5065382;27;88632;-82
2023/08/22 08:28:23;;;;;;;9.02;2.67;;;;;;;;;;5056315;27;88692;-81
2023/08/22 08:30:50;;;;;;;7.00;2.20;;;;;;;;;;5058865;27;88966;-82
2023/08/22 08:33:17;;;;;;;8.57;2.78;;;;;;;;;;5069086;27;90675;-84
2023/08/22 08:35:43;;;;;;;6.97;2.38;;;;;;;;;;5066887;27;87687;-82
2023/08/22 08:38:10;;;;;;;6.25;2.13;;;;;;;;;;5064766;27;88428;-82
2023/08/22 08:40:37;;;;;;;7.90;2.10;;;;;;;;;;5044777;27;91289;-84
2023/08/22 08:43:04;;;;;;;8.20;2.10;;;;;;;;;;5061396;27;87310;-82
2023/08/22 08:45:30;;;;;;;7.50;2.20;;;;;;;;;;5045253;27;89286;-83
2023/08/22 08:48:00;;;;;;;6.90;2.25;;;;;;;;;;5057524;27;89125;-85
2023/08/22 08:50:27;;;;;;;7.15;2.78;;;;;;;;;;5027543;28;89388;-83
2023/08/22 08:52:54;;;;;;;8.95;2.90;;;;;;;;;;5035616;27;91084;-82
2023/08/22 08:55:20;;;;;;;7.95;2.45;;;;;;;;;;5048289;27;88338;-83
2023/08/22 08:57:47;;;;;;;7.00;2.00;;;;;;;;;;5058206;27;88329;-82
2023/08/22 09:00:16;;;;;;;6.20;2.05;;;;;;;;;;5044303;27;88274;-82
2023/08/22 09:02:44;;;;;;;7.60;2.60;;;;;;;;;;5056150;27;87616;-84
2023/08/22 09:05:11;;;;;;;6.65;2.40;;;;;;;;;;5064925;27;87949;-87
2023/08/22 09:07:38;;;;;;;5.80;2.00;;;;;;;;;;5051087;27;87604;-86
2023/08/22 09:10:07;;;;;;;6.55;1.80;;;;;;;;;;5046767;28;87974;-85
2023/08/22 09:12:35;;;;;;;8.13;2.40;;;;;;;;;;5061138;27;87858;-85
2023/08/22 09:15:02;;;;;;;7.47;2.35;;;;;;;;;;5064375;27;92326;-85
2023/08/22 09:17:29;;;;;;;7.90;2.70;;;;;;;;;;5067366;27;89582;-85
2023/08/22 09:19:56;;;;;;;7.43;2.70;;;;;;;;;;5064843;27;88394;-84
2023/08/22 09:22:31;;;;;;;9.30;2.63;;;;;;;;;;5062692;27;88277;-84
2023/08/22 09:24:58;;;;;;;7.63;2.28;;;;;;;;;;5037964;27;90611;-85
2023/08/22 09:27:25;;;;;;;7.50;2.60;;;;;;;;;;5062241;27;88110;-84
2023/08/22 09:29:52;;;;;;;;;;;;;;;;;;5048038;27;87601;-85
2023/08/22 09:32:20;;;;;;;9.43;2.28;;;;;;;;;;5044774;27;95301;-84
2023/08/22 09:34:53;;;;;;;7.45;2.10;;;;;;;;;;5036803;28;88327;-84
2023/08/22 09:37:46;;;;;;;6.80;2.33;;;;;;;;;;5049564;27;87708;-84
2023/08/22 09:40:16;;;;;;;7.97;2.60;;;;;;;;;;5062656;27;89455;-84
2023/08/22 09:42:43;;;;;;;8.10;2.50;;;;;;;;;;5061832;27;88118;-84
2023/08/22 09:45:10;;;;;;;5.80;2.20;;;;;;;;;;5066175;27;88789;-84
2023/08/22 09:47:40;;;;;;;6.90;2.35;;;;;;;;;;5052505;27;88336;-84
2023/08/22 09:50:07;;;;;;;8.10;2.80;;;;;;;;;;5026713;28;89521;-85
2023/08/22 09:52:36;;;;;;;6.65;2.38;;;;;;;;;;5045428;27;87969;-85
2023/08/22 09:55:03;;;;;;;5.97;1.90;;;;;;;;;;5043370;27;88017;-85
2023/08/22 09:57:31;;;;;;;6.72;1.70;;;;;;;;;;5057711;27;87349;-85
2023/08/22 09:59:59;;;;;;;8.63;2.20;;;;;;;;;;5023741;28;89754;-85
2023/08/22 10:02:26;;;;;;;5.88;1.70;;;;;;;;;;5045409;27;91233;-85
2023/08/22 10:04:53;;;;;;;4.75;1.67;;;;;;;;;;5048229;27;88956;-85
2023/08/22 10:07:20;;;;;;;5.15;1.40;;;;;;;;;;5055338;27;88358;-85
2023/08/22 10:09:46;;;;;;;4.03;1.45;;;;;;;;;;5042594;27;87906;-86
2023/08/22 10:12:14;;;;;;;5.68;1.77;;;;;;;;;;5046206;27;87984;-86
2023/08/22 10:14:46;;;;;;;5.88;1.70;;;;;;;;;;5045014;28;88052;-86
2023/08/22 10:17:13;;;;;;;5.70;1.63;;;;;;;;;;5050351;27;88146;-84
2023/08/22 10:19:39;;;;;;;;;;;;;;;;;;5039426;27;88691;-84
2023/08/22 10:22:07;;;;;;;6.45;1.63;;;;;;;;;;5051209;27;96557;-85
2023/08/22 10:24:35;;;;;;;7.65;1.75;;;;;;;;;;5043900;27;88417;-84
2023/08/22 10:27:09;;;;;;;7.00;1.95;;;;;;;;;;5055149;27;88111;-84
2023/08/22 10:29:36;;;;;;;6.15;1.80;;;;;;;;;;5043707;28;88340;-84
2023/08/22 10:32:03;;;;;;;8.10;1.73;;;;;;;;;;5053398;27;88698;-85
2023/08/22 10:34:38;;;;;;;6.60;2.17;;;;;;;;;;5043071;28;89009;-85
2023/08/22 10:37:19;;;;;;;7.82;2.35;;;;;;;;;;5044861;27;88083;-85
2023/08/22 10:39:47;;;;;;;4.90;1.63;;;;;;;;;;5046245;27;88096;-85
2023/08/22 10:42:13;;;;;;;4.70;1.50;;;;;;;;;;5031463;28;90481;-85
2023/08/22 10:44:41;;;;;;;6.53;1.73;;;;;;;;;;5029452;28;90135;-84
2023/08/22 10:47:14;;;;;;;5.60;1.83;;;;;;;;;;5052430;27;87227;-85
2023/08/22 10:49:43;;;;;;;7.63;1.92;;;;;;;;;;5044794;28;87826;-85
2023/08/22 10:52:37;;;;;;;4.97;2.03;;;;;;;;;;5048641;27;90739;-85
2023/08/22 10:55:10;;;;;;;7.10;2.30;;;;;;;;;;5062684;27;90660;-85
2023/08/22 10:57:38;;;;;;;7.57;2.30;;;;;;;;;;5063198;27;89824;-85
2023/08/22 11:00:19;;;;;;;6.43;2.33;;;;;;;;;;5056803;27;90849;-87
2023/08/22 11:02:56;;;;;;;8.27;2.92;;;;;;;;;;5060588;27;88362;-85
2023/08/22 11:05:23;;;;;;;7.68;2.80;;;;;;;;;;5064181;27;87621;-86
2023/08/22 11:07:51;;;;;;;7.25;2.47;;;;;;;;;;5056819;27;88488;-85
2023/08/22 11:10:19;;;;;;;10.70;3.53;;;;;;;;;;5044571;28;87665;-85
2023/08/22 11:12:46;;;;;;;9.43;3.40;;;;;;;;;;5059922;27;90446;-83
2023/08/22 11:15:13;;;;;;;10.13;3.63;;;;;;;;;;5064825;27;87848;-85
2023/08/22 11:17:40;;;;;;;10.60;4.10;;;;;;;;;;5061809;27;87630;-84
2023/08/22 11:20:11;;;;;;;8.57;3.20;;;;;;;;;;5054448;27;89581;-84
2023/08/22 11:22:39;;;;;;;8.35;3.17;;;;;;;;;;5056221;27;89287;-84
2023/08/22 11:25:06;;;;;;;7.03;2.38;;;;;;;;;;5044350;27;87598;-85
2023/08/22 11:27:36;;;;;;;6.07;2.05;;;;;;;;;;5053576;27;88644;-85
2023/08/22 11:30:02;;;;;;;9.45;3.50;;;;;;;;;;5046280;28;88351;-84
2023/08/22 11:32:30;;;;;;;7.72;2.97;;;;;;;;;;5056417;27;88243;-84
2023/08/22 11:35:01;;;;;;;7.85;3.20;;;;;;;;;;5043451;27;90804;-85
2023/08/22 11:37:29;;;;;;;11.05;3.53;;;;;;;;;;5045780;27;90348;-85
2023/08/22 11:39:57;;;;;;;10.27;4.00;;;;;;;;;;5054290;27;90046;-85
2023/08/22 11:42:24;;;;;;;10.70;4.40;;;;;;;;;;5029645;28;90873;-85
2023/08/22 11:45:03;;;;;;;10.95;4.47;;;;;;;;;;5051005;27;88382;-86
2023/08/22 11:47:48;;;;;;;8.88;2.72;;;;;;;;;;5046387;28;88892;-86
2023/08/22 11:50:24;;;;;;;10.93;3.58;;;;;;;;;;5044927;28;88471;-87
2023/08/22 11:52:55;;;;;;;7.40;2.45;;;;;;;;;;5060686;27;87722;-83
2023/08/22 11:55:26;;;;;;;7.50;1.92;;;;;;;;;;5067507;27;88462;-84
2023/08/22 11:57:53;;;;;;;6.28;1.80;;;;;;;;;;5068512;27;87524;-84
2023/08/22 12:00:20;;;;;;;6.05;1.85;;;;;;;;;;5066669;27;88827;-82
2023/08/22 12:02:50;;;;;;;6.20;1.90;;;;;;;;;;5066518;27;88188;-84
2023/08/22 12:05:27;;;;;;;6.78;1.98;;;;;;;;;;5049575;27;89197;-83
2023/08/22 12:07:54;;;;;;;4.90;1.73;;;;;;;;;;5066019;27;88128;-82
2023/08/22 12:10:20;;;;;;;6.80;1.90;;;;;;;;;;5067079;27;88462;-83
2023/08/22 12:12:47;;;;;;;4.15;1.60;;;;;;;;;;5067686;27;87672;-83
2023/08/22 12:15:14;;;;;;;8.07;1.88;;;;;;;;;;5069244;27;90798;-83
2023/08/22 12:17:40;;;;;;;3.47;1.50;;;;;;;;;;5063245;27;87788;-83
2023/08/22 12:20:07;;;;;;;4.43;1.50;;;;;;;;;;5047061;28;88435;-83
2023/08/22 12:22:34;;;;;;;3.45;1.40;;;;;;;;;;5047553;28;88542;-83
2023/08/22 12:25:00;;;;;;;3.50;1.55;;;;;;;;;;5045654;27;89781;-83
2023/08/22 12:27:27;;;;;;;4.72;1.55;;;;;;;;;;5046256;28;90339;-83
2023/08/22 12:29:53;;;;;;;4.65;1.80;;;;;;;;;;5047153;28;88710;-83
2023/08/22 12:32:20;;;;;;;3.55;1.45;;;;;;;;;;5047159;28;87698;-83
2023/08/22 12:34:46;;;;;;;4.13;1.50;;;;;;;;;;5044694;27;88828;-83
2023/08/22 12:37:13;;;;;;;3.88;1.70;;;;;;;;;;5049089;28;88289;-83
2023/08/22 12:39:40;;;;;;;3.33;1.33;;;;;;;;;;5061427;27;88702;-83
2023/08/22 12:42:06;;;;;;;3.83;1.42;;;;;;;;;;5047242;28;88679;-83
2023/08/22 12:44:33;;;;;;;3.40;1.50;;;;;;;;;;5045322;28;89841;-83
2023/08/22 12:47:00;;;;;;;5.53;1.60;;;;;;;;;;5047152;28;88602;-83
2023/08/22 12:49:26;;;;;;;3.17;1.50;;;;;;;;;;5046092;27;88642;-84
2023/08/22 12:51:53;;;;;;;4.38;1.30;;;;;;;;;;5047501;27;86916;-84
2023/08/22 12:54:19;;;;;;;3.30;1.40;;;;;;;;;;5061731;27;88285;-83
2023/08/22 12:56:46;;;;;;;3.83;1.10;;;;;;;;;;5070351;27;88893;-84
2023/08/22 12:59:12;;;;;;;2.70;1.30;;;;;;;;;;5065470;27;88431;-84
2023/08/22 13:01:39;;;;;;;4.65;1.20;;;;;;;;;;5064095;27;88281;-85
2023/08/22 13:04:14;;;;;;;6.30;2.00;;;;;;;;;;5048682;27;88284;-85
2023/08/22 13:06:41;;;;;;;6.00;1.67;;;;;;;;;;5054682;27;87776;-86
2023/08/22 13:09:10;;;;;;;;;;;;;;;;;;5044916;27;88116;-86
2023/08/22 13:11:38;;;;;;;5.32;1.67;;;;;;;;;;5046596;27;104227;-86
2023/08/22 13:14:09;;;;;;;5.85;1.50;;;;;;;;;;5050226;27;87548;-86
2023/08/22 13:16:38;;;;;;;5.75;1.75;;;;;;;;;;5045054;27;88063;-86
2023/08/22 13:19:04;;;;;;;8.35;1.90;;;;;;;;;;5055054;27;87730;-85
2023/08/22 13:21:31;;;;;;;7.70;1.70;;;;;;;;;;5048532;27;89022;-86
2023/08/22 13:23:58;;;;;;;7.07;1.77;;;;;;;;;;5047275;27;88858;-85
2023/08/22 13:26:24;;;;;;;7.13;1.95;;;;;;;;;;5052138;27;88831;-85
2023/08/22 13:28:51;;;;;;;5.25;1.55;;;;;;;;;;5048931;27;90072;-86
2023/08/22 13:31:17;;;;;;;6.45;1.63;;;;;;;;;;5045993;28;87749;-86
2023/08/22 13:33:44;;;;;;;7.13;1.70;;;;;;;;;;5045757;28;88964;-86
2023/08/22 13:36:11;;;;;;;6.97;1.67;;;;;;;;;;5044549;27;88379;-85
2023/08/22 13:38:38;;;;;;;7.65;1.90;;;;;;;;;;5063703;27;87761;-85
2023/08/22 13:41:04;;;;;;;;;;;;;;;;;;5052666;27;87444;-86
2023/08/22 13:43:31;;;;;;;6.28;1.60;;;;;;;;;;5054252;27;102398;-88
2023/08/22 13:45:57;;;;;;;7.32;1.70;;;;;;;;;;5045103;28;88339;-82
2023/08/22 13:48:24;;;;;;;7.63;1.60;;;;;;;;;;5048793;27;89097;-82
2023/08/22 13:50:50;;;;;;;6.47;1.30;;;;;;;;;;5045093;28;87811;-88
2023/08/22 13:53:17;;;;;;;5.50;1.50;;;;;;;;;;5046065;27;91086;-82
2023/08/22 13:55:43;;;;;;;6.97;1.20;;;;;;;;;;5044160;28;88716;-84
2023/08/22 13:58:10;;;;;;;4.28;1.20;;;;;;;;;;5043695;27;87777;-84
2023/08/22 14:00:37;;;;;;;4.53;1.40;;;;;;;;;;5047305;27;90453;-82
2023/08/22 14:03:03;;;;;;;4.30;1.23;;;;;;;;;;5050885;27;88628;-83
2023/08/22 14:05:30;;;;;;;5.32;1.60;;;;;;;;;;5027008;28;90716;-85
2023/08/22 14:07:57;;;;;;;5.38;1.23;;;;;;;;;;5053359;27;87596;-86
2023/08/22 14:10:23;;;;;;;6.32;1.58;;;;;;;;;;5043860;27;87849;-82
2023/08/22 14:12:51;;;;;;;6.13;1.50;;;;;;;;;;5052729;27;88258;-83
2023/08/22 14:15:17;;;;;;;;;;;;;;;;;;5056014;27;88639;-85
2023/08/22 14:17:44;;;;;;;4.40;1.40;;;;;;;;;;5066053;27;115161;-85
2023/08/22 14:20:11;;;;;;;5.10;1.60;;;;;;;;;;5047616;27;88122;-85
2023/08/22 14:22:37;;;;;;;5.95;1.50;;;;;;;;;;5047473;27;88301;-86
2023/08/22 14:25:04;;;;;;;;;;;;;;;;;;5061031;27;87725;-85
2023/08/22 14:27:31;;;;;;;7.15;1.40;;;;;;;;;;5062955;27;90637;-86
2023/08/22 14:29:58;;;;;;;6.20;1.45;;;;;;;;;;5053434;27;87084;-85
2023/08/22 14:32:25;;;;;;;4.68;1.10;;;;;;;;;;5035226;27;89503;-85
2023/08/22 14:34:51;;;;;;;4.05;1.10;;;;;;;;;;5061413;27;88393;-85
2023/08/22 14:37:19;;;;;;;4.18;1.20;;;;;;;;;;5055956;27;88843;-85
2023/08/22 14:39:49;;;;;;;7.03;1.35;;;;;;;;;;5039611;27;88624;-85
2023/08/22 14:42:15;;;;;;;5.28;1.45;;;;;;;;;;5063137;27;88371;-84
2023/08/22 14:44:42;;;;;;;7.15;1.80;;;;;;;;;;5061442;27;89168;-84
2023/08/22 14:47:09;;;;;;;5.90;1.20;;;;;;;;;;5060828;27;90619;-84
2023/08/22 14:49:35;;;;;;;;;;;;;;;;;;5059379;27;87785;-84
2023/08/22 14:52:02;;;;;;;5.35;1.60;;;;;;;;;;5054848;27;88236;-86
2023/08/22 14:54:29;;;;;;;6.53;1.52;;;;;;;;;;5037453;27;88135;-85
2023/08/22 14:56:55;;;;;;;6.22;1.60;;;;;;;;;;5058390;27;87660;-84
2023/08/22 14:59:30;;;;;;;8.30;1.60;;;;;;;;;;5059678;27;88633;-84
2023/08/22 15:01:57;;;;;;;6.82;1.70;;;;;;;;;;5043207;27;89239;-85